createdAt,value
2018-11-03T00:00:19.469Z,12.599792
2018-11-03T00:00:39.269Z,12.499084
2018-11-03T00:00:59.196Z,12.458801
2018-11-03T00:01:18.913Z,12.468872
2018-11-03T00:01:39.136Z,12.468872
2018-11-03T00:01:58.876Z,12.499084
2018-11-03T00:02:18.867Z,12.529297
2018-11-03T00:02:38.730Z,12.539368
2018-11-03T00:02:58.579Z,12.599792
2018-11-03T00:03:18.496Z,12.619934
2018-11-03T00:03:38.357Z,12.650146
2018-11-03T00:03:58.383Z,12.640076
2018-11-03T00:04:18.330Z,12.650146
2018-11-03T00:04:38.290Z,12.680359
2018-11-03T00:04:58.072Z,12.680359
2018-11-03T00:05:18.393Z,12.7005
2018-11-03T00:05:38.274Z,12.640076
2018-11-03T00:05:58.592Z,12.599792
2018-11-03T00:06:19.485Z,12.468872
2018-11-03T00:06:40.367Z,12.388306
2018-11-03T00:07:00.098Z,12.337952
2018-11-03T00:07:19.865Z,12.287598
2018-11-03T00:07:39.736Z,12.18689
2018-11-03T00:07:59.825Z,11.985474
2018-11-03T00:08:19.593Z,11.733704
2018-11-03T00:08:39.509Z,11.522217
2018-11-03T00:08:59.248Z,11.391296
2018-11-03T00:09:18.864Z,11.351013
2018-11-03T00:09:38.514Z,11.320801
2018-11-03T00:09:58.565Z,11.250305
2018-11-03T00:10:18.165Z,11.210022
2018-11-03T00:10:37.741Z,11.17981
2018-11-03T00:10:57.322Z,11.18988
2018-11-03T00:11:16.917Z,11.169739
2018-11-03T00:11:37.553Z,11.17981
2018-11-03T00:11:57.392Z,11.280518
2018-11-03T00:12:17.233Z,11.371155
2018-11-03T00:12:36.878Z,11.391296
2018-11-03T00:12:56.666Z,11.421509
2018-11-03T00:13:16.696Z,11.471863
2018-11-03T00:13:36.467Z,11.43158
2018-11-03T00:13:56.563Z,11.43158
2018-11-03T00:14:16.713Z,11.461792
2018-11-03T00:14:36.637Z,11.582642
2018-11-03T00:14:56.961Z,11.723633
2018-11-03T00:15:16.697Z,11.804199
2018-11-03T00:15:36.505Z,11.884766
2018-11-03T00:15:57.411Z,11.914978
2018-11-03T00:16:17.668Z,11.854553
2018-11-03T00:16:37.390Z,11.723633
2018-11-03T00:16:57.171Z,11.542358
2018-11-03T00:17:17.051Z,11.461792
2018-11-03T00:17:36.719Z,11.320801
2018-11-03T00:17:56.589Z,11.270447
2018-11-03T00:18:16.428Z,11.17981
2018-11-03T00:18:36.033Z,11.099243
2018-11-03T00:18:57.061Z,11.069031
2018-11-03T00:19:17.026Z,11.05896
2018-11-03T00:19:36.679Z,11.05896
2018-11-03T00:19:56.317Z,11.038818
2018-11-03T00:20:16.100Z,10.968323
2018-11-03T00:20:36.001Z,10.988464
2018-11-03T00:20:55.695Z,10.968323
2018-11-03T00:21:15.594Z,10.988464
2018-11-03T00:21:35.227Z,11.018677
2018-11-03T00:21:55.057Z,11.038818
2018-11-03T00:22:14.737Z,11.05896
2018-11-03T00:22:34.350Z,11.109314
2018-11-03T00:22:53.981Z,11.210022
2018-11-03T00:23:13.644Z,11.290588
2018-11-03T00:23:33.271Z,11.43158
2018-11-03T00:23:52.972Z,11.572571
2018-11-03T00:24:12.625Z,11.673279
2018-11-03T00:24:32.227Z,11.784058
2018-11-03T00:24:51.877Z,11.854553
2018-11-03T00:25:11.501Z,11.914978
2018-11-03T00:25:31.133Z,11.975403
2018-11-03T00:25:50.719Z,11.975403
2018-11-03T00:26:11.416Z,11.914978
2018-11-03T00:26:31.300Z,11.834412
2018-11-03T00:26:51.126Z,11.69342
2018-11-03T00:27:10.826Z,11.572571
2018-11-03T00:27:30.492Z,11.522217
2018-11-03T00:27:50.108Z,11.44165
2018-11-03T00:28:09.959Z,11.421509
2018-11-03T00:28:29.649Z,11.391296
2018-11-03T00:28:49.355Z,11.391296
2018-11-03T00:29:10.000Z,11.461792
2018-11-03T00:29:30.746Z,11.552429
2018-11-03T00:29:50.608Z,11.622925
2018-11-03T00:30:10.398Z,11.723633
2018-11-03T00:30:31.027Z,11.753845
2018-11-03T00:30:50.785Z,11.794128
2018-11-03T00:31:10.516Z,11.834412
2018-11-03T00:31:30.116Z,11.864624
2018-11-03T00:31:49.878Z,11.94519
2018-11-03T00:32:09.515Z,12.005615
2018-11-03T00:32:29.108Z,12.06604
2018-11-03T00:32:48.837Z,12.116394
2018-11-03T00:33:08.384Z,12.19696
2018-11-03T00:33:28.025Z,12.207031
2018-11-03T00:33:47.708Z,12.287598
2018-11-03T00:34:07.238Z,12.31781
2018-11-03T00:34:26.790Z,12.378235
2018-11-03T00:34:46.430Z,12.388306
2018-11-03T00:35:05.983Z,12.418518
2018-11-03T00:35:25.508Z,12.458801
2018-11-03T00:35:45.236Z,12.458801
2018-11-03T00:36:05.001Z,12.499084
2018-11-03T00:36:24.590Z,12.519226
2018-11-03T00:36:44.167Z,12.519226
2018-11-03T00:37:03.872Z,12.539368
2018-11-03T00:37:23.582Z,12.559509
2018-11-03T00:37:43.361Z,12.56958
2018-11-03T00:38:03.404Z,12.56958
2018-11-03T00:38:23.183Z,12.589722
2018-11-03T00:38:42.782Z,12.599792
2018-11-03T00:39:02.312Z,12.599792
2018-11-03T00:39:21.961Z,12.619934
2018-11-03T00:39:42.142Z,12.599792
2018-11-03T00:40:01.707Z,12.650146
2018-11-03T00:40:21.384Z,12.650146
2018-11-03T00:40:41.060Z,12.640076
2018-11-03T00:41:00.673Z,12.640076
2018-11-03T00:41:20.777Z,12.640076
2018-11-03T00:41:40.332Z,12.640076
2018-11-03T00:42:00.399Z,12.619934
2018-11-03T00:42:19.940Z,12.640076
2018-11-03T00:42:39.522Z,12.640076
2018-11-03T00:42:59.286Z,12.640076
2018-11-03T00:43:18.777Z,12.599792
2018-11-03T00:43:39.536Z,12.539368
2018-11-03T00:44:00.085Z,12.529297
2018-11-03T00:44:19.688Z,12.519226
2018-11-03T00:44:39.376Z,12.408447
2018-11-03T00:44:59.888Z,12.287598
2018-11-03T00:45:19.427Z,12.06604
2018-11-03T00:45:39.120Z,11.914978
2018-11-03T00:45:58.981Z,11.733704
2018-11-03T00:46:18.550Z,11.643066
2018-11-03T00:46:38.045Z,11.572571
2018-11-03T00:46:57.561Z,11.492004
2018-11-03T00:47:17.109Z,11.361084
2018-11-03T00:47:36.681Z,11.330872
2018-11-03T00:47:56.356Z,11.280518
2018-11-03T00:48:15.894Z,11.270447
2018-11-03T00:48:35.435Z,11.240234
2018-11-03T00:48:54.947Z,11.270447
2018-11-03T00:49:14.480Z,11.320801
2018-11-03T00:49:33.986Z,11.330872
2018-11-03T00:49:53.668Z,11.351013
2018-11-03T00:50:13.173Z,11.351013
2018-11-03T00:50:32.713Z,11.270447
2018-11-03T00:50:52.217Z,11.210022
2018-11-03T00:51:11.825Z,11.169739
2018-11-03T00:51:31.295Z,11.17981
2018-11-03T00:51:50.855Z,11.139526
2018-11-03T00:52:10.441Z,11.109314
2018-11-03T00:52:29.980Z,11.099243
2018-11-03T00:52:49.500Z,11.089172
2018-11-03T00:53:09.023Z,11.069031
2018-11-03T00:53:28.555Z,11.099243
2018-11-03T00:53:48.068Z,11.18988
2018-11-03T00:54:07.588Z,11.351013
2018-11-03T00:54:27.121Z,11.43158
2018-11-03T00:54:46.595Z,11.582642
2018-11-03T00:55:06.118Z,11.69342
2018-11-03T00:55:25.642Z,11.733704
2018-11-03T00:55:45.144Z,11.703491
2018-11-03T00:56:04.668Z,11.69342
2018-11-03T00:56:24.161Z,11.622925
2018-11-03T00:56:43.718Z,11.69342
2018-11-03T00:57:03.258Z,11.733704
2018-11-03T00:57:22.831Z,11.804199
2018-11-03T00:57:42.362Z,11.884766
2018-11-03T00:58:01.888Z,12.005615
2018-11-03T00:58:21.407Z,12.045898
2018-11-03T00:58:40.909Z,12.116394
2018-11-03T00:59:00.428Z,12.166748
2018-11-03T00:59:19.942Z,12.166748
2018-11-03T00:59:39.519Z,12.18689
2018-11-03T00:59:59.022Z,12.207031
2018-11-03T01:00:18.516Z,12.166748
2018-11-03T01:00:38.034Z,12.116394
2018-11-03T01:00:57.570Z,11.955261
2018-11-03T01:01:17.102Z,11.884766
2018-11-03T01:01:36.620Z,11.794128
2018-11-03T01:01:56.118Z,11.723633
2018-11-03T01:02:15.720Z,11.622925
2018-11-03T01:02:36.243Z,11.542358
2018-11-03T01:02:55.772Z,11.44165
2018-11-03T01:03:15.327Z,11.361084
2018-11-03T01:03:34.829Z,11.290588
2018-11-03T01:03:54.343Z,11.290588
2018-11-03T01:04:13.878Z,11.270447
2018-11-03T01:04:34.406Z,11.270447
2018-11-03T01:04:53.925Z,11.290588
2018-11-03T01:05:13.504Z,11.401367
2018-11-03T01:05:32.986Z,11.512146
2018-11-03T01:05:52.508Z,11.602783
2018-11-03T01:06:11.999Z,11.703491
2018-11-03T01:06:31.527Z,11.824341
2018-11-03T01:06:51.036Z,11.854553
2018-11-03T01:07:10.571Z,11.94519
2018-11-03T01:07:31.113Z,12.005615
2018-11-03T01:07:50.679Z,12.045898
2018-11-03T01:08:10.171Z,12.06604
2018-11-03T01:08:29.655Z,11.955261
2018-11-03T01:08:49.192Z,11.914978
2018-11-03T01:09:08.741Z,11.834412
2018-11-03T01:09:28.266Z,11.763916
2018-11-03T01:09:47.789Z,11.784058
2018-11-03T01:10:07.287Z,11.804199
2018-11-03T01:10:26.798Z,11.854553
2018-11-03T01:10:46.349Z,11.94519
2018-11-03T01:11:05.857Z,11.985474
2018-11-03T01:11:25.360Z,12.045898
2018-11-03T01:11:44.877Z,12.096252
2018-11-03T01:12:04.387Z,12.136536
2018-11-03T01:12:23.943Z,12.18689
2018-11-03T01:12:43.454Z,12.19696
2018-11-03T01:13:02.951Z,12.237244
2018-11-03T01:13:22.481Z,12.277527
2018-11-03T01:13:42.006Z,12.31781
2018-11-03T01:14:01.549Z,12.337952
2018-11-03T01:14:21.059Z,12.368164
2018-11-03T01:14:40.576Z,12.368164
2018-11-03T01:15:01.105Z,12.337952
2018-11-03T01:15:20.615Z,12.337952
2018-11-03T01:15:40.126Z,12.31781
2018-11-03T01:15:59.668Z,12.337952
2018-11-03T01:16:19.190Z,12.31781
2018-11-03T01:16:38.701Z,12.307739
2018-11-03T01:16:58.202Z,12.277527
2018-11-03T01:17:17.737Z,12.18689
2018-11-03T01:17:37.294Z,12.136536
2018-11-03T01:17:56.881Z,12.126465
2018-11-03T01:18:16.390Z,12.18689
2018-11-03T01:18:35.946Z,12.19696
2018-11-03T01:18:55.457Z,12.237244
2018-11-03T01:19:15.974Z,12.307739
2018-11-03T01:19:35.484Z,12.368164
2018-11-03T01:19:55.064Z,12.368164
2018-11-03T01:20:14.605Z,12.378235
2018-11-03T01:20:34.118Z,12.408447
2018-11-03T01:20:54.643Z,12.44873
2018-11-03T01:21:14.185Z,12.458801
2018-11-03T01:21:33.731Z,12.458801
2018-11-03T01:21:53.236Z,12.489014
2018-11-03T01:22:12.783Z,12.499084
2018-11-03T01:22:32.333Z,12.489014
2018-11-03T01:22:51.875Z,12.489014
2018-11-03T01:23:11.433Z,12.499084
2018-11-03T01:23:30.985Z,12.499084
2018-11-03T01:23:50.582Z,12.519226
2018-11-03T01:24:09.949Z,12.519226
2018-11-03T01:24:29.456Z,12.519226
2018-11-03T01:24:48.948Z,12.388306
2018-11-03T01:25:08.477Z,12.237244
2018-11-03T01:25:27.981Z,12.19696
2018-11-03T01:25:47.469Z,12.126465
2018-11-03T01:26:07.960Z,12.166748
2018-11-03T01:26:27.477Z,12.19696
2018-11-03T01:26:47.047Z,12.227173
2018-11-03T01:27:06.610Z,12.287598
2018-11-03T01:27:26.156Z,12.337952
2018-11-03T01:27:45.735Z,12.368164
2018-11-03T01:28:05.292Z,12.388306
2018-11-03T01:28:24.807Z,12.44873
2018-11-03T01:28:44.338Z,12.489014
2018-11-03T01:29:03.855Z,12.499084
2018-11-03T01:29:23.368Z,12.499084
2018-11-03T01:29:42.911Z,12.539368
2018-11-03T01:30:02.425Z,12.559509
2018-11-03T01:30:22.012Z,12.56958
2018-11-03T01:30:41.620Z,12.56958
2018-11-03T01:31:01.155Z,12.56958
2018-11-03T01:31:20.655Z,12.589722
2018-11-03T01:31:40.174Z,12.56958
2018-11-03T01:31:59.686Z,12.589722
2018-11-03T01:32:19.217Z,12.559509
2018-11-03T01:32:38.905Z,12.589722
2018-11-03T01:32:58.332Z,12.56958
2018-11-03T01:33:17.859Z,12.559509
2018-11-03T01:33:37.416Z,12.559509
2018-11-03T01:33:56.951Z,12.559509
2018-11-03T01:34:16.483Z,12.559509
2018-11-03T01:34:36.009Z,12.559509
2018-11-03T01:34:55.515Z,12.529297
2018-11-03T01:35:15.049Z,12.539368
2018-11-03T01:35:34.586Z,12.539368
2018-11-03T01:35:54.094Z,12.559509
2018-11-03T01:36:13.647Z,12.559509
2018-11-03T01:36:33.174Z,12.559509
2018-11-03T01:36:52.701Z,12.559509
2018-11-03T01:37:12.227Z,12.559509
2018-11-03T01:37:31.742Z,12.56958
2018-11-03T01:37:52.297Z,12.44873
2018-11-03T01:38:11.784Z,12.378235
2018-11-03T01:38:32.322Z,12.277527
2018-11-03T01:38:51.836Z,12.096252
2018-11-03T01:39:11.338Z,11.94519
2018-11-03T01:39:30.883Z,11.804199
2018-11-03T01:39:50.421Z,11.69342
2018-11-03T01:40:09.937Z,11.582642
2018-11-03T01:40:30.452Z,11.44165
2018-11-03T01:40:49.937Z,11.361084
2018-11-03T01:41:09.457Z,11.270447
2018-11-03T01:41:28.952Z,11.210022
2018-11-03T01:41:48.472Z,11.149597
2018-11-03T01:42:08.052Z,11.139526
2018-11-03T01:42:27.600Z,11.17981
2018-11-03T01:42:47.165Z,11.17981
2018-11-03T01:43:06.696Z,11.139526
2018-11-03T01:43:26.210Z,11.089172
2018-11-03T01:43:45.735Z,11.089172
2018-11-03T01:44:05.255Z,11.05896
2018-11-03T01:44:24.786Z,11.028748
2018-11-03T01:44:44.302Z,11.038818
2018-11-03T01:45:04.786Z,11.069031
2018-11-03T01:45:24.333Z,11.089172
2018-11-03T01:45:43.866Z,11.109314
2018-11-03T01:46:03.446Z,11.109314
2018-11-03T01:46:22.991Z,11.099243
2018-11-03T01:46:42.512Z,11.069031
2018-11-03T01:47:02.075Z,11.05896
2018-11-03T01:47:21.601Z,11.099243
2018-11-03T01:47:41.148Z,11.149597
2018-11-03T01:48:01.760Z,11.17981
2018-11-03T01:48:21.277Z,11.17981
2018-11-03T01:48:40.837Z,11.139526
2018-11-03T01:49:00.341Z,11.149597
2018-11-03T01:49:19.860Z,11.099243
2018-11-03T01:49:39.420Z,11.028748
2018-11-03T01:49:58.942Z,10.968323
2018-11-03T01:50:18.492Z,10.958252
2018-11-03T01:50:38.015Z,10.917969
2018-11-03T01:50:57.560Z,10.887756
2018-11-03T01:51:17.064Z,10.817261
2018-11-03T01:51:36.632Z,10.776978
2018-11-03T01:51:56.173Z,10.696411
2018-11-03T01:52:15.709Z,10.656128
2018-11-03T01:52:35.234Z,10.595703
2018-11-03T01:52:55.059Z,10.595703
2018-11-03T01:53:14.569Z,10.595703
2018-11-03T01:53:34.068Z,10.605774
2018-11-03T01:53:53.586Z,10.585632
2018-11-03T01:54:13.101Z,10.605774
2018-11-03T01:54:32.660Z,10.666199
2018-11-03T01:54:52.171Z,10.756836
2018-11-03T01:55:11.692Z,10.787048
2018-11-03T01:55:31.193Z,10.847473
2018-11-03T01:55:50.756Z,10.958252
2018-11-03T01:56:10.274Z,11.089172
2018-11-03T01:56:29.793Z,11.18988
2018-11-03T01:56:49.330Z,11.280518
2018-11-03T01:57:08.836Z,11.250305
2018-11-03T01:57:28.354Z,11.210022
2018-11-03T01:57:48.065Z,11.17981
2018-11-03T01:58:07.641Z,11.250305
2018-11-03T01:58:27.163Z,11.351013
2018-11-03T01:58:46.666Z,11.43158
2018-11-03T01:59:06.170Z,11.522217
2018-11-03T01:59:26.693Z,11.612854
2018-11-03T01:59:46.228Z,11.653137
2018-11-03T02:00:05.810Z,11.673279
2018-11-03T02:00:25.400Z,11.522217
2018-11-03T02:00:45.005Z,11.280518
2018-11-03T02:01:04.594Z,11.17981
2018-11-03T02:01:24.109Z,11.05896
2018-11-03T02:01:43.618Z,10.93811
2018-11-03T02:02:03.158Z,10.787048
2018-11-03T02:02:22.690Z,10.696411
2018-11-03T02:02:42.283Z,10.635986
2018-11-03T02:03:01.835Z,10.625916
2018-11-03T02:03:21.341Z,10.605774
2018-11-03T02:03:41.848Z,10.605774
2018-11-03T02:04:01.380Z,10.625916
2018-11-03T02:04:20.916Z,10.656128
2018-11-03T02:04:40.449Z,10.666199
2018-11-03T02:04:59.948Z,10.706482
2018-11-03T02:05:19.495Z,10.847473
2018-11-03T02:05:39.029Z,10.887756
2018-11-03T02:05:58.583Z,10.988464
2018-11-03T02:06:18.136Z,11.038818
2018-11-03T02:06:37.641Z,11.149597
2018-11-03T02:06:57.169Z,11.220093
2018-11-03T02:07:16.660Z,11.280518
2018-11-03T02:07:37.215Z,11.371155
2018-11-03T02:07:56.823Z,11.401367
2018-11-03T02:08:16.408Z,11.43158
2018-11-03T02:08:36.915Z,11.471863
2018-11-03T02:08:56.438Z,11.512146
2018-11-03T02:09:15.979Z,11.572571
2018-11-03T02:09:35.510Z,11.612854
2018-11-03T02:09:56.702Z,11.703491
2018-11-03T02:10:16.229Z,11.784058
2018-11-03T02:10:35.752Z,11.824341
2018-11-03T02:10:55.296Z,11.864624
2018-11-03T02:11:14.813Z,11.914978
2018-11-03T02:11:34.327Z,11.955261
2018-11-03T02:11:53.884Z,11.985474
2018-11-03T02:12:13.412Z,12.005615
2018-11-03T02:12:32.946Z,12.035828
2018-11-03T02:12:52.472Z,12.045898
2018-11-03T02:13:12.053Z,12.096252
2018-11-03T02:13:31.556Z,12.086182
2018-11-03T02:13:51.105Z,12.096252
2018-11-03T02:14:10.621Z,12.096252
2018-11-03T02:14:30.112Z,12.126465
2018-11-03T02:14:49.628Z,12.116394
2018-11-03T02:15:09.132Z,12.116394
2018-11-03T02:15:28.671Z,12.126465
2018-11-03T02:15:48.221Z,12.126465
2018-11-03T02:16:07.790Z,12.126465
2018-11-03T02:16:27.307Z,12.136536
2018-11-03T02:16:46.849Z,12.015686
2018-11-03T02:17:06.380Z,11.834412
2018-11-03T02:17:25.926Z,11.763916
2018-11-03T02:17:45.471Z,11.763916
2018-11-03T02:18:05.014Z,11.794128
2018-11-03T02:18:24.640Z,11.834412
2018-11-03T02:18:44.172Z,11.864624
2018-11-03T02:19:04.695Z,11.884766
2018-11-03T02:19:24.234Z,11.94519
2018-11-03T02:19:43.752Z,12.005615
2018-11-03T02:20:03.307Z,12.015686
2018-11-03T02:20:22.812Z,12.045898
2018-11-03T02:20:42.327Z,12.035828
2018-11-03T02:21:01.892Z,12.015686
2018-11-03T02:21:21.368Z,12.005615
2018-11-03T02:21:40.918Z,12.015686
2018-11-03T02:22:00.430Z,12.035828
2018-11-03T02:22:19.994Z,11.93512
2018-11-03T02:22:39.485Z,11.643066
2018-11-03T02:22:59.041Z,11.552429
2018-11-03T02:23:18.621Z,11.552429
2018-11-03T02:23:38.172Z,11.612854
2018-11-03T02:23:57.716Z,11.542358
2018-11-03T02:24:17.212Z,11.44165
2018-11-03T02:24:36.722Z,11.401367
2018-11-03T02:24:56.259Z,11.361084
2018-11-03T02:25:15.795Z,11.401367
2018-11-03T02:25:36.318Z,11.461792
2018-11-03T02:25:55.847Z,11.512146
2018-11-03T02:26:15.405Z,11.602783
2018-11-03T02:26:34.936Z,11.673279
2018-11-03T02:26:54.484Z,11.723633
2018-11-03T02:27:13.998Z,11.763916
2018-11-03T02:27:33.523Z,11.824341
2018-11-03T02:27:53.084Z,11.854553
2018-11-03T02:28:12.582Z,11.914978
2018-11-03T02:28:32.200Z,11.94519
2018-11-03T02:28:51.734Z,11.985474
2018-11-03T02:29:11.260Z,11.985474
2018-11-03T02:29:30.774Z,12.005615
2018-11-03T02:29:50.313Z,12.035828
2018-11-03T02:30:09.846Z,12.045898
2018-11-03T02:30:29.334Z,12.086182
2018-11-03T02:30:48.851Z,12.116394
2018-11-03T02:31:08.376Z,12.126465
2018-11-03T02:31:27.889Z,12.126465
2018-11-03T02:31:47.388Z,12.126465
2018-11-03T02:32:06.924Z,12.136536
2018-11-03T02:32:26.478Z,12.156677
2018-11-03T02:32:45.961Z,12.166748
2018-11-03T02:33:05.500Z,12.19696
2018-11-03T02:33:25.105Z,12.19696
2018-11-03T02:33:44.589Z,12.19696
2018-11-03T02:34:04.098Z,12.207031
2018-11-03T02:34:23.614Z,12.227173
2018-11-03T02:34:43.125Z,12.227173
2018-11-03T02:35:02.678Z,12.267456
2018-11-03T02:35:22.205Z,12.237244
2018-11-03T02:35:41.730Z,12.267456
2018-11-03T02:36:02.283Z,12.267456
2018-11-03T02:36:21.852Z,12.227173
2018-11-03T02:36:41.393Z,12.237244
2018-11-03T02:37:00.939Z,12.227173
2018-11-03T02:37:20.491Z,12.267456
2018-11-03T02:37:39.993Z,12.267456
2018-11-03T02:37:59.516Z,12.267456
2018-11-03T02:38:19.026Z,12.287598
2018-11-03T02:38:38.598Z,12.277527
2018-11-03T02:38:58.143Z,12.287598
2018-11-03T02:39:17.657Z,12.277527
2018-11-03T02:39:37.168Z,12.287598
2018-11-03T02:39:56.829Z,12.287598
2018-11-03T02:40:16.335Z,12.277527
2018-11-03T02:40:35.866Z,12.287598
2018-11-03T02:40:55.374Z,12.267456
2018-11-03T02:41:14.895Z,12.277527
2018-11-03T02:41:36.371Z,12.166748
2018-11-03T02:41:55.917Z,12.086182
2018-11-03T02:42:15.431Z,12.06604
2018-11-03T02:42:34.974Z,11.985474
2018-11-03T02:42:54.498Z,11.804199
2018-11-03T02:43:14.017Z,11.703491
2018-11-03T02:43:33.616Z,11.643066
2018-11-03T02:43:53.151Z,11.643066
2018-11-03T02:44:12.684Z,11.653137
2018-11-03T02:44:32.204Z,11.643066
2018-11-03T02:44:51.725Z,11.69342
2018-11-03T02:45:11.286Z,11.733704
2018-11-03T02:45:30.811Z,11.763916
2018-11-03T02:45:51.314Z,11.834412
2018-11-03T02:46:11.865Z,11.854553
2018-11-03T02:46:31.385Z,11.69342
2018-11-03T02:46:50.920Z,11.522217
2018-11-03T02:47:10.423Z,11.461792
2018-11-03T02:47:29.973Z,11.421509
2018-11-03T02:47:49.497Z,11.401367
2018-11-03T02:48:09.024Z,11.371155
2018-11-03T02:48:28.529Z,11.270447
2018-11-03T02:48:48.138Z,11.240234
2018-11-03T02:49:07.679Z,11.169739
2018-11-03T02:49:27.229Z,11.139526
2018-11-03T02:49:46.754Z,11.18988
2018-11-03T02:50:06.272Z,11.18988
2018-11-03T02:50:25.778Z,11.240234
2018-11-03T02:50:45.292Z,11.250305
2018-11-03T02:51:04.814Z,11.330872
2018-11-03T02:51:24.321Z,11.401367
2018-11-03T02:51:43.834Z,11.512146
2018-11-03T02:52:03.357Z,11.542358
2018-11-03T02:52:22.864Z,11.643066
2018-11-03T02:52:42.384Z,11.69342
2018-11-03T02:53:01.958Z,11.733704
2018-11-03T02:53:21.445Z,11.753845
2018-11-03T02:53:41.081Z,11.763916
2018-11-03T02:54:00.594Z,11.673279
2018-11-03T02:54:20.145Z,11.582642
2018-11-03T02:54:40.665Z,11.522217
2018-11-03T02:55:00.182Z,11.512146
2018-11-03T02:55:19.715Z,11.492004
2018-11-03T02:55:39.237Z,11.542358
2018-11-03T02:55:58.761Z,11.622925
2018-11-03T02:56:18.295Z,11.69342
2018-11-03T02:56:38.802Z,11.733704
2018-11-03T02:56:58.332Z,11.784058
2018-11-03T02:57:17.848Z,11.824341
2018-11-03T02:57:37.355Z,11.824341
2018-11-03T02:57:56.863Z,11.904907
2018-11-03T02:58:16.377Z,11.904907
2018-11-03T02:58:36.904Z,11.914978
2018-11-03T02:58:56.452Z,11.955261
2018-11-03T02:59:15.957Z,11.975403
2018-11-03T02:59:35.476Z,12.015686
2018-11-03T02:59:55.010Z,12.005615
2018-11-03T03:00:14.539Z,12.045898
2018-11-03T03:00:35.062Z,12.06604
2018-11-03T03:00:54.635Z,12.06604
2018-11-03T03:01:14.158Z,12.06604
2018-11-03T03:01:33.681Z,12.086182
2018-11-03T03:01:53.181Z,12.045898
2018-11-03T03:02:12.703Z,12.015686
2018-11-03T03:02:32.231Z,12.005615
2018-11-03T03:02:51.799Z,11.985474
2018-11-03T03:03:11.318Z,12.015686
2018-11-03T03:03:30.837Z,12.035828
2018-11-03T03:03:50.447Z,12.045898
2018-11-03T03:04:09.967Z,12.086182
2018-11-03T03:04:29.521Z,12.096252
2018-11-03T03:04:49.057Z,12.126465
2018-11-03T03:05:08.574Z,12.126465
2018-11-03T03:05:29.158Z,12.136536
2018-11-03T03:05:48.695Z,12.136536
2018-11-03T03:06:08.201Z,12.136536
2018-11-03T03:06:27.727Z,12.156677
2018-11-03T03:06:47.228Z,12.18689
2018-11-03T03:07:06.751Z,12.166748
2018-11-03T03:07:26.293Z,12.166748
2018-11-03T03:07:45.853Z,12.166748
2018-11-03T03:08:05.352Z,12.166748
2018-11-03T03:08:24.859Z,12.156677
2018-11-03T03:08:44.369Z,12.156677
2018-11-03T03:09:03.993Z,12.156677
2018-11-03T03:09:23.552Z,12.126465
2018-11-03T03:09:43.073Z,12.116394
2018-11-03T03:10:02.585Z,12.136536
2018-11-03T03:10:22.115Z,12.126465
2018-11-03T03:10:42.621Z,12.156677
2018-11-03T03:11:02.154Z,12.136536
2018-11-03T03:11:21.693Z,12.136536
2018-11-03T03:11:41.233Z,12.156677
2018-11-03T03:12:00.761Z,12.166748
2018-11-03T03:12:20.262Z,12.166748
2018-11-03T03:12:39.783Z,12.166748
2018-11-03T03:13:00.344Z,12.166748
2018-11-03T03:13:19.856Z,12.18689
2018-11-03T03:13:40.388Z,12.166748
2018-11-03T03:13:59.971Z,12.166748
2018-11-03T03:14:19.512Z,12.166748
2018-11-03T03:14:39.042Z,12.19696
2018-11-03T03:14:58.555Z,12.18689
2018-11-03T03:15:18.174Z,12.136536
2018-11-03T03:15:37.751Z,12.156677
2018-11-03T03:15:57.288Z,12.166748
2018-11-03T03:16:16.804Z,12.156677
2018-11-03T03:16:36.323Z,12.156677
2018-11-03T03:16:55.853Z,12.156677
2018-11-03T03:17:15.383Z,12.136536
2018-11-03T03:17:34.934Z,12.136536
2018-11-03T03:17:54.676Z,12.126465
2018-11-03T03:18:14.212Z,12.166748
2018-11-03T03:18:33.768Z,12.156677
2018-11-03T03:18:53.276Z,12.136536
2018-11-03T03:19:12.863Z,12.156677
2018-11-03T03:19:32.562Z,12.156677
2018-11-03T03:19:52.078Z,12.126465
2018-11-03T03:20:11.599Z,12.116394
2018-11-03T03:20:31.120Z,12.116394
2018-11-03T03:20:50.673Z,12.086182
2018-11-03T03:21:10.189Z,12.086182
2018-11-03T03:21:29.685Z,12.086182
2018-11-03T03:21:49.195Z,12.086182
2018-11-03T03:22:08.711Z,12.086182
2018-11-03T03:22:28.212Z,12.086182
2018-11-03T03:22:47.750Z,12.06604
2018-11-03T03:23:07.302Z,12.06604
2018-11-03T03:23:26.906Z,12.015686
2018-11-03T03:23:46.435Z,12.035828
2018-11-03T03:24:05.999Z,11.985474
2018-11-03T03:24:25.561Z,11.93512
2018-11-03T03:24:45.081Z,11.834412
2018-11-03T03:25:04.615Z,11.69342
2018-11-03T03:25:24.173Z,11.471863
2018-11-03T03:25:43.704Z,11.320801
2018-11-03T03:26:03.288Z,11.149597
2018-11-03T03:26:22.819Z,11.038818
2018-11-03T03:26:43.397Z,10.988464
2018-11-03T03:27:03.926Z,10.968323
2018-11-03T03:27:23.443Z,11.028748
2018-11-03T03:27:43.042Z,11.099243
2018-11-03T03:28:02.557Z,11.149597
2018-11-03T03:28:23.087Z,11.250305
2018-11-03T03:28:42.677Z,11.361084
2018-11-03T03:29:02.297Z,11.461792
2018-11-03T03:29:21.714Z,11.512146
2018-11-03T03:29:41.343Z,11.582642
2018-11-03T03:30:00.756Z,11.673279
2018-11-03T03:30:20.318Z,11.723633
2018-11-03T03:30:39.831Z,11.703491
2018-11-03T03:30:59.367Z,11.763916
2018-11-03T03:31:18.917Z,11.763916
2018-11-03T03:31:38.495Z,11.794128
2018-11-03T03:31:58.033Z,11.824341
2018-11-03T03:32:17.577Z,11.854553
2018-11-03T03:32:37.154Z,11.884766
2018-11-03T03:32:56.751Z,11.904907
2018-11-03T03:33:16.209Z,11.94519
2018-11-03T03:33:35.773Z,11.94519
2018-11-03T03:33:55.281Z,11.975403
2018-11-03T03:34:14.887Z,12.005615
2018-11-03T03:34:34.406Z,11.975403
2018-11-03T03:34:54.976Z,11.985474
2018-11-03T03:35:14.502Z,12.015686
2018-11-03T03:35:34.062Z,12.035828
2018-11-03T03:35:53.623Z,12.015686
2018-11-03T03:36:13.197Z,12.045898
2018-11-03T03:36:32.708Z,12.035828
2018-11-03T03:36:52.239Z,12.045898
2018-11-03T03:37:11.770Z,12.035828
2018-11-03T03:37:31.295Z,12.06604
2018-11-03T03:37:50.856Z,12.06604
2018-11-03T03:38:10.378Z,12.096252
2018-11-03T03:38:29.947Z,12.096252
2018-11-03T03:38:49.483Z,12.096252
2018-11-03T03:39:09.026Z,12.126465
2018-11-03T03:39:28.627Z,12.126465
2018-11-03T03:39:48.191Z,12.136536
2018-11-03T03:40:07.715Z,12.126465
2018-11-03T03:40:27.230Z,12.096252
2018-11-03T03:40:46.763Z,12.086182
2018-11-03T03:41:06.305Z,12.045898
2018-11-03T03:41:25.844Z,12.06604
2018-11-03T03:41:45.396Z,12.06604
2018-11-03T03:42:04.891Z,12.086182
2018-11-03T03:42:24.451Z,12.086182
2018-11-03T03:42:44.984Z,12.116394
2018-11-03T03:43:04.491Z,12.096252
2018-11-03T03:43:25.000Z,12.126465
2018-11-03T03:43:44.525Z,12.116394
2018-11-03T03:44:05.056Z,12.166748
2018-11-03T03:44:24.623Z,12.136536
2018-11-03T03:44:44.158Z,12.126465
2018-11-03T03:45:03.685Z,12.096252
2018-11-03T03:45:23.212Z,12.096252